createdAt,value
2023-03-15T00:13:23.406Z,2.20
2023-03-15T00:20:59.495Z,2.21
2023-03-15T00:28:33.495Z,2.16
2023-03-15T00:36:11.204Z,2.15
2023-03-15T00:43:45.770Z,2.11
2023-03-15T00:51:23.444Z,2.09
2023-03-15T00:58:58.489Z,2.08
2023-03-15T01:06:33.841Z,2.05
2023-03-15T01:14:09.126Z,1.95
2023-03-15T01:21:47.911Z,1.89
2023-03-15T01:29:24.063Z,1.89
2023-03-15T01:37:00.949Z,1.91
2023-03-15T01:44:56.629Z,1.91
2023-03-15T01:52:37.669Z,1.93
2023-03-15T02:00:15.660Z,1.92
2023-03-15T02:07:54.718Z,1.84
2023-03-15T02:15:28.859Z,1.75
2023-03-15T02:23:07.267Z,1.68
2023-03-15T02:30:43.196Z,1.63
2023-03-15T02:38:17.228Z,1.48
2023-03-15T02:46:10.676Z,1.43
2023-03-15T02:53:44.673Z,1.42
2023-03-15T03:01:20.799Z,1.38
2023-03-15T03:08:54.712Z,1.31
2023-03-15T03:16:30.441Z,1.27
2023-03-15T03:24:04.382Z,1.24
2023-03-15T03:31:39.857Z,1.21
2023-03-15T03:39:14.127Z,1.15
2023-03-15T03:46:49.276Z,1.08
2023-03-15T03:54:23.273Z,1.03
2023-03-15T04:01:58.696Z,0.98
2023-03-15T04:09:37.591Z,0.90
2023-03-15T04:17:13.338Z,0.89
2023-03-15T04:24:50.825Z,0.86
2023-03-15T04:32:26.538Z,0.82
2023-03-15T04:40:01.522Z,0.76
2023-03-15T04:47:36.939Z,0.72
2023-03-15T04:55:11.739Z,0.68
2023-03-15T05:02:52.268Z,0.64
2023-03-15T05:10:30.870Z,0.60
2023-03-15T05:18:06.524Z,0.50
2023-03-15T05:25:40.559Z,0.47
2023-03-15T05:33:16.088Z,0.44
2023-03-15T05:40:50.450Z,0.46
2023-03-15T05:48:25.842Z,0.54
2023-03-15T05:55:59.919Z,0.64
2023-03-15T06:03:35.000Z,0.76
2023-03-15T06:11:09.161Z,0.83
2023-03-15T06:18:44.544Z,1.00
2023-03-15T06:26:19.441Z,1.13
2023-03-15T06:33:54.964Z,1.24
2023-03-15T06:41:28.987Z,1.35
2023-03-15T06:49:04.586Z,1.46
2023-03-15T06:56:38.777Z,1.61
2023-03-15T07:04:14.100Z,1.66
2023-03-15T07:11:47.945Z,1.69
2023-03-15T07:19:23.489Z,1.84
2023-03-15T07:26:57.514Z,1.92
2023-03-15T07:34:33.090Z,2.03
2023-03-15T07:42:08.167Z,2.14
2023-03-15T07:49:43.598Z,2.27
2023-03-15T07:57:17.667Z,2.41
2023-03-15T08:04:53.380Z,2.59
2023-03-15T08:12:28.112Z,2.74
2023-03-15T08:20:04.375Z,2.97
2023-03-15T08:27:38.455Z,3.30
2023-03-15T08:43:07.538Z,3.39
2023-03-15T08:50:43.209Z,3.26
2023-03-15T08:58:19.929Z,3.20
2023-03-15T09:05:58.864Z,3.18
2023-03-15T09:13:32.902Z,3.39
2023-03-15T09:21:08.493Z,3.37
2023-03-15T09:28:42.466Z,3.57
2023-03-15T09:36:18.150Z,3.91
2023-03-15T09:44:06.547Z,3.88
2023-03-15T09:51:48.590Z,3.88
2023-03-15T09:59:24.135Z,3.98
2023-03-15T10:07:02.036Z,4.25
2023-03-15T10:14:59.138Z,4.51
2023-03-15T10:22:40.063Z,4.32
2023-03-15T10:30:18.497Z,4.38
2023-03-15T10:37:53.753Z,4.49
2023-03-15T10:45:28.443Z,4.43
2023-03-15T10:53:11.326Z,4.29
2023-03-15T11:00:51.846Z,4.38
2023-03-15T11:08:38.576Z,4.59
2023-03-15T11:16:22.975Z,4.73
2023-03-15T11:24:01.191Z,5.02
2023-03-15T11:31:36.931Z,5.22
2023-03-15T11:39:15.774Z,5.54
2023-03-15T11:46:52.126Z,5.60
2023-03-15T11:54:32.498Z,5.17
2023-03-15T12:02:37.556Z,5.24
2023-03-15T12:10:34.062Z,5.52
2023-03-15T12:18:15.203Z,5.79
2023-03-15T12:33:51.491Z,6.05
2023-03-15T12:41:39.177Z,6.14
2023-03-15T12:49:15.165Z,6.29
2023-03-15T12:56:54.480Z,6.35
2023-03-15T13:04:29.636Z,6.38
2023-03-15T13:12:15.314Z,6.42
2023-03-15T13:19:57.671Z,6.53
2023-03-15T13:27:47.404Z,6.57
2023-03-15T13:35:21.370Z,6.62
2023-03-15T13:43:01.210Z,6.37
2023-03-15T13:50:35.273Z,5.26
2023-03-15T13:58:11.267Z,5.13
2023-03-15T14:05:48.207Z,5.25
2023-03-15T14:13:26.325Z,5.42
2023-03-15T14:21:01.980Z,5.61
2023-03-15T14:28:37.637Z,5.77
2023-03-15T14:36:24.149Z,5.98
2023-03-15T14:44:00.207Z,6.10
2023-03-15T14:51:34.308Z,6.22
2023-03-15T14:59:13.485Z,6.38
2023-03-15T15:06:52.262Z,6.31
2023-03-15T15:14:28.724Z,6.25
2023-03-15T15:22:02.909Z,6.31
2023-03-15T15:29:38.438Z,6.48
2023-03-15T15:37:12.853Z,6.43
2023-03-15T15:44:48.435Z,6.39
2023-03-15T15:52:22.787Z,6.34
2023-03-15T15:59:58.027Z,6.23
2023-03-15T16:07:32.349Z,6.07
2023-03-15T16:15:08.737Z,5.26
2023-03-15T16:22:44.936Z,4.62
2023-03-15T16:30:23.969Z,4.53
2023-03-15T16:37:59.770Z,4.52
2023-03-15T16:45:35.218Z,4.46
2023-03-15T16:53:11.731Z,4.49
2023-03-15T17:00:48.773Z,4.46
2023-03-15T17:08:23.108Z,4.45
2023-03-15T17:16:25.383Z,4.45
2023-03-15T17:23:59.740Z,4.41
2023-03-15T17:31:36.144Z,4.36
2023-03-15T17:39:17.004Z,4.32
2023-03-15T17:46:52.412Z,4.28
2023-03-15T17:54:26.394Z,4.23
2023-03-15T18:02:01.888Z,4.14
2023-03-15T18:09:35.682Z,4.10
2023-03-15T18:25:05.064Z,3.93
2023-03-15T18:40:33.458Z,3.53
2023-03-15T18:48:09.498Z,3.52
2023-03-15T18:55:44.722Z,3.47
2023-03-15T19:03:22.109Z,3.36
2023-03-15T19:10:59.214Z,3.36
2023-03-15T19:18:34.842Z,3.34
2023-03-15T19:26:09.223Z,3.33
2023-03-15T19:33:44.457Z,3.25
2023-03-15T19:41:18.405Z,3.19
2023-03-15T19:48:53.916Z,3.07
2023-03-15T19:56:28.076Z,3.04
2023-03-15T20:04:03.560Z,3.05
2023-03-15T20:11:37.563Z,3.02
2023-03-15T20:27:04.750Z,2.91
2023-03-15T20:34:41.502Z,2.84
2023-03-15T20:42:15.423Z,2.77
2023-03-15T20:57:43.520Z,2.59
2023-03-15T21:05:18.684Z,2.51
2023-03-15T21:12:52.646Z,2.41
2023-03-15T21:20:28.183Z,2.26
2023-03-15T21:28:02.118Z,2.17
2023-03-15T21:35:37.270Z,2.08
2023-03-15T21:43:11.403Z,1.99
2023-03-15T21:50:46.536Z,1.88
2023-03-15T21:58:20.346Z,1.83
2023-03-15T22:05:55.442Z,1.76
2023-03-15T22:13:30.219Z,1.68
2023-03-15T22:21:05.872Z,1.60
2023-03-15T22:28:39.650Z,1.52
2023-03-15T22:36:17.187Z,1.41
2023-03-15T22:43:52.686Z,1.31
2023-03-15T22:51:27.977Z,1.25
2023-03-15T22:59:01.700Z,1.18
2023-03-15T23:06:37.024Z,1.14
2023-03-15T23:14:11.148Z,1.09
2023-03-15T23:21:46.494Z,1.01
2023-03-15T23:29:20.274Z,0.95
2023-03-15T23:36:55.531Z,0.89
2023-03-15T23:44:29.250Z,0.84
2023-03-15T23:52:06.031Z,0.78
2023-03-15T23:59:41.366Z,0.73
